Time;durP1;ratioP1;P1;durP2;ratioP2;P2;SDS_P1;SDS_P2;PMS_P1;PMS_P2;Temp;Humidity;BMP_temperature;BMP_pressure;BME280_temperature;BME280_humidity;BME280_pressure;Samples;Min_cycle;Max_cycle;Signal;HPM_P1;HPM_P2
2021/09/25 00:01:01;;;;;;;5.10;3.40;;;17.20;99.90;;;;;;5004558;28;20690;-50
2021/09/25 00:03:28;;;;;;;5.80;3.93;;;17.20;99.90;;;;;;5005532;28;20269;-51
2021/09/25 00:05:56;;;;;;;4.90;3.63;;;17.20;99.90;;;;;;5004909;28;20304;-51
2021/09/25 00:08:22;;;;;;;4.00;3.60;;;17.20;99.90;;;;;;4999478;28;20655;-50
2021/09/25 00:10:49;;;;;;;5.63;3.90;;;17.10;99.90;;;;;;4997009;28;20295;-51
2021/09/25 00:13:16;;;;;;;6.73;3.90;;;17.00;99.90;;;;;;4998025;28;20216;-50
2021/09/25 00:15:43;;;;;;;4.00;3.43;;;17.10;99.90;;;;;;5000551;28;20278;-50
2021/09/25 00:18:10;;;;;;;6.70;4.03;;;17.10;99.90;;;;;;5000770;28;20311;-51
2021/09/25 00:20:38;;;;;;;6.73;4.13;;;17.00;99.90;;;;;;4998826;28;20640;-50
2021/09/25 00:23:05;;;;;;;8.03;3.97;;;17.00;99.90;;;;;;4996783;28;20323;-50
2021/09/25 00:25:32;;;;;;;7.03;3.97;;;17.00;99.90;;;;;;4998586;28;20597;-50
2021/09/25 00:27:59;;;;;;;6.10;3.87;;;16.90;99.90;;;;;;4993476;28;20240;-51
2021/09/25 00:30:27;;;;;;;6.10;3.80;;;16.90;99.90;;;;;;5004687;28;20231;-51
2021/09/25 00:32:54;;;;;;;5.07;4.30;;;16.90;99.90;;;;;;4991661;28;20265;-51
2021/09/25 00:35:21;;;;;;;5.13;3.60;;;17.00;99.90;;;;;;4992909;28;20289;-51
2021/09/25 00:37:48;;;;;;;5.57;4.33;;;16.90;99.90;;;;;;4996461;28;20239;-51
2021/09/25 00:40:18;;;;;;;6.87;4.50;;;16.90;99.90;;;;;;4991816;28;20614;-51
2021/09/25 00:42:46;;;;;;;6.00;3.90;;;16.90;99.90;;;;;;4996970;28;20290;-51
2021/09/25 00:45:12;;;;;;;7.87;4.00;;;16.90;99.90;;;;;;4989707;28;20666;-50
2021/09/25 00:47:39;;;;;;;7.13;3.90;;;16.90;99.90;;;;;;4995297;28;20344;-51
2021/09/25 00:50:08;;;;;;;9.83;4.43;;;16.90;99.90;;;;;;5000440;28;20304;-51
2021/09/25 00:52:34;;;;;;;8.37;4.23;;;16.80;99.90;;;;;;4992759;28;20278;-51
2021/09/25 00:55:03;;;;;;;6.53;4.17;;;16.80;99.90;;;;;;4993199;28;20236;-51
2021/09/25 00:57:30;;;;;;;7.90;4.07;;;16.80;99.90;;;;;;4990125;28;20480;-51
2021/09/25 00:59:57;;;;;;;5.10;3.87;;;16.80;99.90;;;;;;4993735;28;20236;-50
2021/09/25 01:02:24;;;;;;;8.10;4.50;;;16.90;99.90;;;;;;4997714;28;20235;-50
2021/09/25 01:04:51;;;;;;;8.23;4.53;;;16.80;99.90;;;;;;4997040;28;20288;-51
2021/09/25 01:07:19;;;;;;;6.23;4.53;;;16.80;99.90;;;;;;4996071;28;20240;-51
2021/09/25 01:09:45;;;;;;;5.87;4.27;;;16.80;99.90;;;;;;4994172;28;20275;-50
2021/09/25 01:12:12;;;;;;;5.77;4.30;;;16.70;99.90;;;;;;4998601;28;20205;-51
2021/09/25 01:14:39;;;;;;;7.90;4.90;;;16.70;99.90;;;;;;4989168;28;20293;-50
2021/09/25 01:17:08;;;;;;;7.23;4.30;;;16.60;99.90;;;;;;4994779;28;20397;-51
2021/09/25 01:19:36;;;;;;;7.93;4.50;;;16.60;99.90;;;;;;4992112;28;20685;-51
2021/09/25 01:22:04;;;;;;;6.37;4.80;;;16.60;99.90;;;;;;4996373;28;20282;-51
2021/09/25 01:24:31;;;;;;;6.67;4.60;;;16.70;99.90;;;;;;4991784;28;20315;-51
2021/09/25 01:26:58;;;;;;;5.60;3.70;;;16.80;99.90;;;;;;4995766;28;20290;-51
2021/09/25 01:29:25;;;;;;;7.77;4.93;;;16.80;99.90;;;;;;4997829;28;20750;-51
2021/09/25 01:31:53;;;;;;;7.27;4.67;;;16.60;99.90;;;;;;4997502;28;20278;-51
2021/09/25 01:34:20;;;;;;;8.77;5.07;;;16.70;99.90;;;;;;4995193;28;20203;-50
2021/09/25 01:36:48;;;;;;;6.30;4.30;;;16.70;99.90;;;;;;4994348;28;20235;-50
2021/09/25 01:39:15;;;;;;;7.57;4.30;;;16.70;99.90;;;;;;4995442;28;20705;-51
2021/09/25 01:41:42;;;;;;;5.77;4.03;;;16.70;99.90;;;;;;4995512;28;20214;-51
2021/09/25 01:44:09;;;;;;;6.77;4.30;;;16.70;99.90;;;;;;4997687;28;20216;-50
2021/09/25 01:46:36;;;;;;;6.03;4.47;;;16.60;99.90;;;;;;4996083;28;20289;-51
2021/09/25 01:49:03;;;;;;;5.47;4.70;;;16.60;99.90;;;;;;4995797;28;20224;-51
2021/09/25 01:51:30;;;;;;;7.43;4.03;;;16.70;99.90;;;;;;4996026;28;20295;-51
2021/09/25 01:53:57;;;;;;;6.37;4.70;;;16.70;99.90;;;;;;4996053;28;20329;-51
2021/09/25 01:56:23;;;;;;;5.50;4.37;;;16.60;99.90;;;;;;4997300;28;20310;-50
2021/09/25 01:58:50;;;;;;;6.83;4.67;;;16.70;99.90;;;;;;4998399;28;20630;-51
2021/09/25 02:01:17;;;;;;;7.17;4.53;;;16.60;99.90;;;;;;4998798;28;20309;-50
2021/09/25 02:03:44;;;;;;;7.50;4.40;;;16.80;99.90;;;;;;4999598;28;20225;-51
2021/09/25 02:06:12;;;;;;;7.63;5.13;;;16.90;99.90;;;;;;5000530;28;20205;-51
2021/09/25 02:08:40;;;;;;;10.53;4.40;;;16.90;99.90;;;;;;4997713;28;20301;-50
2021/09/25 02:11:08;;;;;;;6.43;4.33;;;16.80;99.90;;;;;;5015409;28;20884;-50
2021/09/25 02:13:34;;;;;;;7.67;4.87;;;16.80;99.90;;;;;;4995744;28;20227;-51
2021/09/25 02:16:01;;;;;;;5.93;4.13;;;16.80;99.90;;;;;;4996995;28;20267;-51
2021/09/25 02:18:28;;;;;;;8.67;4.70;;;16.80;99.90;;;;;;5014499;28;20286;-51
2021/09/25 02:20:56;;;;;;;7.93;4.93;;;16.70;99.90;;;;;;5000886;28;20599;-50
2021/09/25 02:23:23;;;;;;;5.40;4.40;;;16.70;99.90;;;;;;5000846;28;20735;-51
2021/09/25 02:25:49;;;;;;;7.83;4.63;;;16.60;99.90;;;;;;4998619;28;20243;-51
2021/09/25 02:28:16;;;;;;;6.30;4.33;;;16.60;99.90;;;;;;4999167;28;20306;-51
2021/09/25 02:30:43;;;;;;;8.67;4.87;;;16.60;99.90;;;;;;4999450;28;20201;-51
2021/09/25 02:33:10;;;;;;;8.30;5.20;;;16.50;99.90;;;;;;4997687;28;20240;-50
2021/09/25 02:35:37;;;;;;;8.70;4.60;;;16.60;99.90;;;;;;5001627;28;20853;-51
2021/09/25 02:38:04;;;;;;;8.93;4.40;;;16.60;99.90;;;;;;4997201;28;20295;-51
2021/09/25 02:40:31;;;;;;;7.37;4.57;;;16.50;99.90;;;;;;5001074;28;20242;-51
2021/09/25 02:42:58;;;;;;;7.17;4.67;;;16.50;99.90;;;;;;5003342;28;20210;-51
2021/09/25 02:45:25;;;;;;;6.93;4.80;;;16.50;99.90;;;;;;4996974;28;20301;-51
2021/09/25 02:47:52;;;;;;;6.80;4.13;;;16.40;99.90;;;;;;5003040;28;20288;-51
2021/09/25 02:50:19;;;;;;;7.83;4.73;;;16.40;99.90;;;;;;5004338;28;20211;-51
2021/09/25 02:52:46;;;;;;;6.57;4.77;;;16.40;99.90;;;;;;5001965;28;20257;-50
2021/09/25 02:55:14;;;;;;;7.67;4.53;;;16.30;99.90;;;;;;4997051;28;20209;-51
2021/09/25 02:57:42;;;;;;;7.03;4.10;;;16.30;99.90;;;;;;4998843;28;20206;-51
2021/09/25 03:00:15;;;;;;;6.37;4.57;;;16.40;99.90;;;;;;5000322;28;20286;-51
2021/09/25 03:02:41;;;;;;;5.87;4.40;;;16.30;99.90;;;;;;4999497;28;20350;-51
2021/09/25 03:05:10;;;;;;;6.10;4.37;;;16.30;99.90;;;;;;4997450;28;20211;-51
2021/09/25 03:07:37;;;;;;;8.00;4.50;;;16.40;99.90;;;;;;5002392;28;20688;-51
2021/09/25 03:10:06;;;;;;;6.53;4.03;;;16.30;99.90;;;;;;4998937;28;20562;-51
2021/09/25 03:12:33;;;;;;;6.40;4.57;;;16.30;99.90;;;;;;5001870;28;20247;-51
2021/09/25 03:15:01;;;;;;;6.97;4.27;;;16.30;99.90;;;;;;4996359;28;20231;-51
2021/09/25 03:17:28;;;;;;;7.07;4.60;;;16.30;99.90;;;;;;5001376;28;20283;-51
2021/09/25 03:19:54;;;;;;;5.53;4.33;;;16.40;99.90;;;;;;4997822;28;20293;-51
2021/09/25 03:22:21;;;;;;;4.63;4.13;;;16.40;99.90;;;;;;4999297;28;20300;-51
2021/09/25 03:24:48;;;;;;;6.23;4.43;;;16.30;99.90;;;;;;4993290;28;20299;-51
2021/09/25 03:27:15;;;;;;;5.80;4.17;;;16.40;99.90;;;;;;4995820;28;20290;-51
2021/09/25 03:29:42;;;;;;;7.40;4.27;;;16.40;99.90;;;;;;5004496;28;20713;-51
2021/09/25 03:32:08;;;;;;;6.33;4.10;;;16.40;99.90;;;;;;4998774;28;20656;-51
2021/09/25 03:34:35;;;;;;;5.30;4.37;;;16.30;99.90;;;;;;4996634;28;20763;-51
2021/09/25 03:37:02;;;;;;;5.40;4.33;;;16.30;99.90;;;;;;4997961;28;20718;-51
2021/09/25 03:39:29;;;;;;;4.90;4.10;;;16.30;99.90;;;;;;4995624;28;20564;-51
2021/09/25 03:41:56;;;;;;;4.60;4.00;;;16.30;99.90;;;;;;4997703;28;20250;-51
2021/09/25 03:44:23;;;;;;;5.50;3.90;;;16.30;99.90;;;;;;4995952;28;21007;-51
2021/09/25 03:46:50;;;;;;;5.27;3.97;;;16.20;99.90;;;;;;4993976;28;20285;-51
2021/09/25 03:49:16;;;;;;;6.67;3.80;;;16.20;99.90;;;;;;4996888;28;20699;-51
2021/09/25 03:51:43;;;;;;;5.47;3.80;;;16.20;99.90;;;;;;4999504;28;20241;-51
2021/09/25 03:54:10;;;;;;;6.63;3.53;;;16.20;99.90;;;;;;4993846;28;20241;-51
2021/09/25 03:56:37;;;;;;;6.80;3.83;;;16.30;99.90;;;;;;4996952;28;20313;-51
2021/09/25 03:59:04;;;;;;;7.87;4.33;;;16.20;99.90;;;;;;4991952;28;20262;-51
2021/09/25 04:01:30;;;;;;;5.23;4.00;;;16.20;99.90;;;;;;4995013;28;20198;-51
2021/09/25 04:03:58;;;;;;;5.07;3.50;;;16.20;99.90;;;;;;4998497;28;20234;-51
2021/09/25 04:06:26;;;;;;;5.23;3.43;;;16.10;99.90;;;;;;4998723;28;20211;-51
2021/09/25 04:08:53;;;;;;;6.47;3.83;;;16.20;99.90;;;;;;4997380;28;20221;-51
2021/09/25 04:11:20;;;;;;;4.70;3.70;;;16.20;99.90;;;;;;4994669;28;20713;-51
2021/09/25 04:13:47;;;;;;;10.97;3.70;;;16.20;99.90;;;;;;4994315;28;20196;-51
2021/09/25 04:16:14;;;;;;;5.10;3.93;;;16.20;99.90;;;;;;4995107;28;20290;-51
2021/09/25 04:18:41;;;;;;;5.30;3.70;;;16.20;99.90;;;;;;4997815;28;20227;-51
2021/09/25 04:21:08;;;;;;;4.60;3.33;;;16.30;99.90;;;;;;4996798;28;20290;-51
2021/09/25 04:23:35;;;;;;;5.57;3.77;;;16.20;99.90;;;;;;4997055;28;20274;-51
2021/09/25 04:26:02;;;;;;;7.33;4.27;;;16.20;99.90;;;;;;4989392;28;20632;-51
2021/09/25 04:28:29;;;;;;;6.03;3.63;;;16.20;99.90;;;;;;4995026;28;20729;-51
2021/09/25 04:30:55;;;;;;;5.90;4.33;;;16.20;99.90;;;;;;4994062;28;20660;-51
2021/09/25 04:33:22;;;;;;;5.97;3.77;;;16.20;99.90;;;;;;4994250;28;22454;-52
2021/09/25 04:35:49;;;;;;;8.87;4.67;;;16.20;99.90;;;;;;4995041;28;20234;-51
2021/09/25 04:38:16;;;;;;;7.50;4.33;;;16.10;99.90;;;;;;4996057;28;20207;-51
2021/09/25 04:40:43;;;;;;;7.90;3.80;;;16.10;99.90;;;;;;4995812;28;20290;-51
2021/09/25 04:43:10;;;;;;;4.43;3.43;;;16.10;99.90;;;;;;4992869;28;20306;-51
2021/09/25 04:45:36;;;;;;;5.83;3.90;;;16.10;99.90;;;;;;4996998;28;20298;-51
2021/09/25 04:48:04;;;;;;;5.73;4.50;;;16.10;99.90;;;;;;4997908;28;20299;-51
2021/09/25 04:50:31;;;;;;;4.33;3.80;;;16.10;99.90;;;;;;4993983;28;20261;-51
2021/09/25 04:53:13;;;;;;;4.53;4.10;;;16.10;99.90;;;;;;4996356;28;20278;-51
2021/09/25 04:55:41;;;;;;;6.07;4.13;;;16.10;99.90;;;;;;4992008;28;20199;-51
2021/09/25 04:58:08;;;;;;;9.03;4.23;;;16.10;99.90;;;;;;4994758;28;20313;-51
2021/09/25 05:00:36;;;;;;;7.07;4.50;;;16.10;99.90;;;;;;4994196;28;21070;-51
2021/09/25 05:03:04;;;;;;;8.40;4.70;;;16.00;99.90;;;;;;5000964;28;20198;-51
2021/09/25 05:05:31;;;;;;;6.27;4.27;;;16.10;99.90;;;;;;4999481;28;20195;-51
2021/09/25 05:07:58;;;;;;;10.10;5.20;;;16.10;99.90;;;;;;4998372;28;20239;-51
2021/09/25 05:10:25;;;;;;;5.57;3.83;;;16.10;99.90;;;;;;4998940;28;20208;-51
2021/09/25 05:12:52;;;;;;;9.53;4.33;;;16.10;99.90;;;;;;4997976;28;20301;-51
2021/09/25 05:15:19;;;;;;;6.73;4.27;;;16.10;99.90;;;;;;4997384;28;20273;-51
2021/09/25 05:17:46;;;;;;;9.23;4.23;;;16.10;99.90;;;;;;4997613;28;20198;-51
2021/09/25 05:20:13;;;;;;;7.63;4.33;;;16.10;99.90;;;;;;4991402;28;20298;-51
2021/09/25 05:22:40;;;;;;;5.73;4.03;;;16.20;99.90;;;;;;4994471;28;20728;-51
2021/09/25 05:25:08;;;;;;;6.33;4.13;;;16.30;99.90;;;;;;4992377;28;20257;-51
2021/09/25 05:27:35;;;;;;;8.97;4.70;;;16.30;99.90;;;;;;4990935;28;20316;-51
2021/09/25 05:30:04;;;;;;;7.73;4.20;;;16.30;99.90;;;;;;4997832;28;20238;-51
2021/09/25 05:32:31;;;;;;;6.97;3.90;;;16.20;99.90;;;;;;4999352;28;20281;-51
2021/09/25 05:34:58;;;;;;;11.50;4.40;;;16.20;99.90;;;;;;4999321;28;20231;-51
2021/09/25 05:37:25;;;;;;;5.40;4.23;;;16.20;99.90;;;;;;4996681;28;20232;-51
2021/09/25 05:39:54;;;;;;;9.67;4.00;;;16.30;99.90;;;;;;4993528;28;20243;-51
2021/09/25 05:42:28;;;;;;;6.90;3.87;;;16.30;99.90;;;;;;4997121;28;20975;-51
2021/09/25 05:44:55;;;;;;;5.17;3.80;;;16.40;99.90;;;;;;4998886;28;21120;-51
2021/09/25 05:47:23;;;;;;;7.53;4.17;;;16.30;99.90;;;;;;4994908;28;21023;-51
2021/09/25 05:49:50;;;;;;;5.17;3.80;;;16.30;99.90;;;;;;4995213;28;20242;-51
2021/09/25 05:52:18;;;;;;;5.10;3.33;;;16.30;99.90;;;;;;4994111;28;20203;-51
2021/09/25 05:54:45;;;;;;;5.17;3.83;;;16.20;99.90;;;;;;4994895;28;20619;-51
2021/09/25 05:57:12;;;;;;;7.73;3.90;;;16.30;99.90;;;;;;4994453;28;20236;-51
2021/09/25 05:59:39;;;;;;;6.97;4.17;;;16.30;99.90;;;;;;4995380;28;20346;-51
2021/09/25 06:02:06;;;;;;;5.83;4.43;;;16.30;99.90;;;;;;4991307;28;20326;-51
2021/09/25 06:04:35;;;;;;;4.93;3.40;;;16.40;99.90;;;;;;4993161;28;20243;-51
2021/09/25 06:07:04;;;;;;;6.33;4.20;;;16.40;99.90;;;;;;4995455;28;20222;-51
2021/09/25 06:09:35;;;;;;;8.27;4.03;;;16.40;99.90;;;;;;4995850;28;20219;-51
2021/09/25 06:12:02;;;;;;;5.73;3.93;;;16.30;99.90;;;;;;4992406;28;20199;-51
2021/09/25 06:14:29;;;;;;;5.37;4.53;;;16.30;99.90;;;;;;5015105;28;20650;-51
2021/09/25 06:16:56;;;;;;;5.83;4.10;;;16.20;99.90;;;;;;5000747;28;20637;-51
2021/09/25 06:19:23;;;;;;;8.43;4.83;;;16.30;99.90;;;;;;4996814;28;20213;-51
2021/09/25 06:21:50;;;;;;;7.67;4.77;;;16.20;99.90;;;;;;4991591;28;20202;-51
2021/09/25 06:24:17;;;;;;;6.23;4.47;;;16.40;99.90;;;;;;4994224;28;20203;-51
2021/09/25 06:26:43;;;;;;;6.90;5.50;;;16.30;99.90;;;;;;4991992;28;20580;-51
2021/09/25 06:29:11;;;;;;;7.73;6.27;;;16.30;99.90;;;;;;4992549;28;20232;-51
2021/09/25 06:31:37;;;;;;;8.77;6.53;;;16.30;99.90;;;;;;4994226;28;20318;-51
2021/09/25 06:34:04;;;;;;;9.00;5.90;;;16.20;99.90;;;;;;4996922;28;20204;-51
2021/09/25 06:36:33;;;;;;;12.77;6.17;;;16.20;99.90;;;;;;4997570;28;20198;-51
2021/09/25 06:39:01;;;;;;;7.57;5.27;;;16.10;99.90;;;;;;4994764;28;20198;-51
2021/09/25 06:41:28;;;;;;;9.07;5.23;;;16.10;99.90;;;;;;4998503;28;20350;-51
2021/09/25 06:43:54;;;;;;;6.30;5.00;;;16.10;99.90;;;;;;5005285;28;20208;-51
2021/09/25 06:46:21;;;;;;;6.93;4.23;;;16.20;99.90;;;;;;4996657;28;20627;-51
2021/09/25 06:48:49;;;;;;;7.33;5.17;;;16.40;99.90;;;;;;5017254;28;20205;-51
2021/09/25 06:51:17;;;;;;;8.10;5.60;;;16.50;99.90;;;;;;4996284;28;20627;-51
2021/09/25 06:53:44;;;;;;;8.33;5.47;;;16.40;99.90;;;;;;5000711;28;20260;-51
2021/09/25 06:56:11;;;;;;;9.13;5.33;;;16.40;99.90;;;;;;4997792;28;20201;-51
2021/09/25 06:58:38;;;;;;;7.43;5.23;;;16.50;99.90;;;;;;5003279;28;20265;-51
2021/09/25 07:01:05;;;;;;;8.20;5.30;;;16.40;99.90;;;;;;4998654;28;20265;-51
2021/09/25 07:03:32;;;;;;;8.77;5.20;;;16.40;99.90;;;;;;4998172;28;20216;-51
2021/09/25 07:06:00;;;;;;;8.17;4.57;;;16.60;99.90;;;;;;5000494;28;20535;-51
2021/09/25 07:08:27;;;;;;;10.57;5.40;;;16.60;99.90;;;;;;5005495;28;20284;-51
2021/09/25 07:10:53;;;;;;;8.03;4.80;;;16.60;99.90;;;;;;4997601;28;20226;-51
2021/09/25 07:13:21;;;;;;;8.07;5.30;;;16.60;99.90;;;;;;4997026;28;20201;-51
2021/09/25 07:15:48;;;;;;;7.87;5.00;;;16.60;99.90;;;;;;4995499;28;20222;-51
2021/09/25 07:18:14;;;;;;;10.13;5.40;;;16.60;99.90;;;;;;4999761;28;20298;-51
2021/09/25 07:20:42;;;;;;;6.43;5.00;;;16.60;99.90;;;;;;5000645;28;20226;-51
2021/09/25 07:23:09;;;;;;;7.20;5.17;;;16.60;99.90;;;;;;4998955;28;20243;-51
2021/09/25 07:25:39;;;;;;;9.20;5.43;;;16.50;99.90;;;;;;4993054;28;20246;-51
2021/09/25 07:28:07;;;;;;;8.30;5.97;;;16.50;99.90;;;;;;4996243;28;20695;-51
2021/09/25 07:30:36;;;;;;;7.10;5.03;;;16.50;99.90;;;;;;4990366;28;20232;-51
2021/09/25 07:33:05;;;;;;;9.20;6.20;;;16.60;99.90;;;;;;4989471;28;20222;-52
2021/09/25 07:35:34;;;;;;;9.70;6.40;;;16.50;99.90;;;;;;4994027;28;20697;-52
2021/09/25 07:38:02;;;;;;;10.27;5.67;;;16.50;99.90;;;;;;5000947;28;20296;-50
2021/09/25 07:40:30;;;;;;;10.23;6.10;;;16.60;99.90;;;;;;4995963;28;20620;-51
2021/09/25 07:42:57;;;;;;;9.90;6.53;;;16.70;99.90;;;;;;4995716;28;20355;-51
2021/09/25 07:45:25;;;;;;;11.97;5.70;;;16.70;99.90;;;;;;4996849;28;20207;-50
2021/09/25 07:47:53;;;;;;;8.63;5.50;;;16.80;99.90;;;;;;4995880;28;20537;-51
2021/09/25 07:50:20;;;;;;;11.03;6.77;;;16.90;99.90;;;;;;4988591;28;20210;-50
2021/09/25 07:52:47;;;;;;;9.57;6.57;;;17.00;99.90;;;;;;5000363;28;20547;-51
2021/09/25 07:55:14;;;;;;;10.23;6.57;;;16.90;99.90;;;;;;4993330;28;20619;-51
2021/09/25 07:57:42;;;;;;;9.87;6.27;;;16.70;99.90;;;;;;4997103;28;20295;-51
2021/09/25 08:00:12;;;;;;;11.40;7.03;;;16.70;99.90;;;;;;4998328;28;20219;-51
2021/09/25 08:02:40;;;;;;;13.23;7.47;;;16.80;99.90;;;;;;4997386;28;20229;-51
2021/09/25 08:05:09;;;;;;;11.97;7.43;;;16.80;99.90;;;;;;4992430;28;20212;-50
2021/09/25 08:07:37;;;;;;;10.57;7.63;;;16.90;99.90;;;;;;4988435;28;20312;-51
2021/09/25 08:10:06;;;;;;;16.33;7.90;;;16.80;99.90;;;;;;5000773;28;20219;-51
2021/09/25 08:12:33;;;;;;;12.97;7.50;;;16.80;99.90;;;;;;4991607;28;20303;-51
2021/09/25 08:15:00;;;;;;;17.90;8.63;;;16.80;99.90;;;;;;4993550;28;20211;-51
2021/09/25 08:17:27;;;;;;;15.27;8.10;;;16.70;99.90;;;;;;4990144;28;20359;-50
2021/09/25 08:19:54;;;;;;;12.80;8.33;;;16.60;99.90;;;;;;4992905;28;20288;-50
2021/09/25 08:22:21;;;;;;;13.80;8.73;;;16.70;99.90;;;;;;4996438;28;20256;-51
2021/09/25 08:24:48;;;;;;;12.93;7.93;;;16.70;99.90;;;;;;4998838;28;20645;-51
2021/09/25 08:27:15;;;;;;;13.20;8.43;;;16.70;99.90;;;;;;4994946;28;20239;-50
2021/09/25 08:29:42;;;;;;;13.40;8.60;;;16.70;99.90;;;;;;4995723;28;20645;-51
2021/09/25 08:32:09;;;;;;;13.67;8.50;;;16.70;99.90;;;;;;4994592;28;20624;-51
2021/09/25 08:34:36;;;;;;;14.27;9.27;;;16.90;99.90;;;;;;4995397;28;20300;-51
2021/09/25 08:37:05;;;;;;;15.87;9.70;;;16.90;99.90;;;;;;4994467;28;20219;-51
2021/09/25 08:39:33;;;;;;;16.33;9.03;;;16.90;99.90;;;;;;4999382;28;20231;-53
2021/09/25 08:42:00;;;;;;;13.77;9.40;;;17.00;99.90;;;;;;4996753;28;20212;-51
2021/09/25 08:44:28;;;;;;;14.87;9.90;;;17.00;99.90;;;;;;4998147;28;20614;-50
2021/09/25 08:46:54;;;;;;;18.80;9.90;;;17.20;99.90;;;;;;4997746;28;20390;-52
2021/09/25 08:49:22;;;;;;;16.47;10.10;;;17.10;99.90;;;;;;4998557;28;20192;-53
2021/09/25 08:51:49;;;;;;;18.53;10.23;;;17.20;99.90;;;;;;4992234;28;20251;-50
2021/09/25 08:54:15;;;;;;;12.50;9.00;;;17.10;99.90;;;;;;4993927;28;20266;-53
2021/09/25 08:56:42;;;;;;;17.63;10.80;;;17.10;99.90;;;;;;4992234;28;20287;-53
2021/09/25 08:59:09;;;;;;;13.70;10.20;;;17.10;99.90;;;;;;4998918;28;20209;-51
2021/09/25 09:01:39;;;;;;;16.63;10.17;;;17.10;99.90;;;;;;4994228;28;20370;-58
2021/09/25 09:04:07;;;;;;;17.93;10.20;;;17.20;99.90;;;;;;5001667;28;21120;-59
2021/09/25 09:06:36;;;;;;;13.20;9.70;;;17.10;99.90;;;;;;4990248;28;20213;-59
2021/09/25 09:09:05;;;;;;;16.57;10.00;;;17.10;99.90;;;;;;4991251;28;20635;-59
2021/09/25 09:11:35;;;;;;;16.43;9.63;;;17.10;99.90;;;;;;4988361;28;20475;-58
2021/09/25 09:14:03;;;;;;;14.13;10.33;;;17.30;99.90;;;;;;4994409;28;20236;-58
2021/09/25 09:16:30;;;;;;;13.00;9.73;;;17.40;99.90;;;;;;4989832;28;20203;-59
2021/09/25 09:18:59;;;;;;;17.47;10.50;;;17.40;99.90;;;;;;5003744;28;20741;-59
2021/09/25 09:21:29;;;;;;;18.33;10.10;;;17.60;99.90;;;;;;4987735;28;20226;-59
2021/09/25 09:24:08;;;;;;;15.37;9.73;;;17.50;99.90;;;;;;4996099;28;20200;-59
2021/09/25 09:26:41;;;;;;;12.80;9.30;;;17.30;99.90;;;;;;4991990;28;20219;-58
2021/09/25 09:29:09;;;;;;;14.50;9.40;;;17.30;99.90;;;;;;4991994;28;20208;-59
2021/09/25 09:31:38;;;;;;;15.23;9.27;;;17.30;99.90;;;;;;4972450;28;20239;-58
2021/09/25 09:34:07;;;;;;;15.17;9.77;;;17.30;99.90;;;;;;4989297;28;20199;-58
2021/09/25 09:36:35;;;;;;;15.33;9.57;;;17.30;99.90;;;;;;4986709;28;20196;-57
2021/09/25 09:39:09;;;;;;;15.93;9.50;;;17.30;99.90;;;;;;4990036;28;20207;-57
2021/09/25 09:41:43;;;;;;;17.00;9.83;;;17.30;99.90;;;;;;4986973;28;20564;-57
2021/09/25 09:44:18;;;;;;;14.93;10.00;;;17.30;99.90;;;;;;5004507;28;20209;-58
2021/09/25 09:46:54;;;;;;;12.83;9.80;;;17.50;99.90;;;;;;4991324;28;20581;-51
2021/09/25 09:49:23;;;;;;;17.33;10.07;;;17.60;99.90;;;;;;4986535;28;20302;-50
2021/09/25 09:51:57;;;;;;;16.90;10.03;;;17.60;99.90;;;;;;4986887;28;20338;-51
2021/09/25 09:54:25;;;;;;;15.93;9.83;;;17.60;99.90;;;;;;4990893;28;20589;-52
2021/09/25 09:56:55;;;;;;;14.43;9.63;;;17.60;99.90;;;;;;4996810;28;20467;-52
2021/09/25 09:59:23;;;;;;;17.43;9.90;;;17.80;99.90;;;;;;4993173;28;20256;-51
2021/09/25 10:01:50;;;;;;;13.30;9.57;;;17.90;99.90;;;;;;4988938;28;20316;-51
2021/09/25 10:04:19;;;;;;;15.57;10.37;;;17.90;99.90;;;;;;4991833;28;20242;-52
2021/09/25 10:06:47;;;;;;;15.77;11.40;;;17.90;99.90;;;;;;4986393;28;20688;-51
2021/09/25 10:09:20;;;;;;;14.00;10.20;;;17.80;99.90;;;;;;4989276;28;20228;-52
2021/09/25 10:11:53;;;;;;;15.53;10.87;;;17.80;99.90;;;;;;4990108;28;20636;-52
2021/09/25 10:14:25;;;;;;;15.87;10.10;;;17.90;99.90;;;;;;4994972;28;20241;-51
2021/09/25 10:16:54;;;;;;;13.60;10.23;;;17.90;99.90;;;;;;4993309;28;20284;-52
2021/09/25 10:19:26;;;;;;;14.97;9.67;;;17.90;99.90;;;;;;4989080;28;20682;-52
2021/09/25 10:21:56;;;;;;;12.97;9.13;;;17.90;99.90;;;;;;5002199;28;20725;-52
2021/09/25 10:24:34;;;;;;;16.10;9.87;;;17.90;99.90;;;;;;4995712;28;20284;-52
2021/09/25 10:27:03;;;;;;;14.83;9.13;;;18.20;99.90;;;;;;4999217;28;20197;-52
2021/09/25 10:29:30;;;;;;;14.67;9.13;;;18.40;99.90;;;;;;5001762;28;20195;-52
2021/09/25 10:32:19;;;;;;;15.83;10.33;;;18.40;99.90;;;;;;4996931;28;20284;-52
2021/09/25 10:35:19;;;;;;;17.90;10.00;;;18.20;99.90;;;;;;4992772;28;20302;-52
2021/09/25 10:37:49;;;;;;;15.43;9.60;;;18.40;99.90;;;;;;4996048;28;20312;-52
2021/09/25 10:40:42;;;;;;;15.80;9.17;;;18.50;99.90;;;;;;4995726;28;20205;-52
2021/09/25 10:43:24;;;;;;;13.17;8.60;;;18.70;99.90;;;;;;4996129;28;20674;-51
2021/09/25 10:45:59;;;;;;;15.93;9.83;;;18.60;99.90;;;;;;4997566;28;20228;-51
2021/09/25 10:48:29;;;;;;;14.37;9.47;;;18.50;99.90;;;;;;5001502;28;20545;-51
2021/09/25 10:51:11;;;;;;;14.77;9.60;;;18.70;99.90;;;;;;5000713;28;20251;-51
2021/09/25 10:53:44;;;;;;;13.83;9.20;;;18.70;99.90;;;;;;4993189;28;20807;-51
2021/09/25 10:56:22;;;;;;;14.27;9.93;;;18.80;99.90;;;;;;4993163;28;20729;-52
2021/09/25 10:59:01;;;;;;;11.33;8.80;;;18.70;99.90;;;;;;4997384;28;20201;-51
2021/09/25 11:01:32;;;;;;;14.47;9.30;;;18.70;99.90;;;;;;4998271;28;20212;-52
2021/09/25 11:04:04;;;;;;;17.30;9.47;;;18.70;99.90;;;;;;5001211;28;20249;-52
2021/09/25 11:06:42;;;;;;;15.27;8.93;;;18.90;99.90;;;;;;5002546;28;20340;-52
2021/09/25 11:09:27;;;;;;;13.57;9.47;;;19.00;99.90;;;;;;5002853;28;20240;-52
2021/09/25 11:11:58;;;;;;;14.83;9.10;;;19.10;99.90;;;;;;4998605;28;20229;-52
2021/09/25 11:14:32;;;;;;;14.20;9.00;;;19.20;99.90;;;;;;4999948;28;20209;-52
2021/09/25 11:17:14;;;;;;;13.80;7.77;;;19.20;99.90;;;;;;5002133;28;20256;-52
2021/09/25 11:19:43;;;;;;;12.97;8.03;;;19.30;99.90;;;;;;5003894;28;20218;-52
2021/09/25 11:22:15;;;;;;;13.10;8.60;;;19.40;99.90;;;;;;4997520;28;20271;-52
2021/09/25 11:25:01;;;;;;;11.50;8.10;;;19.30;99.90;;;;;;5000014;28;21019;-52
2021/09/25 11:27:30;;;;;;;15.13;9.17;;;19.40;99.90;;;;;;5005471;28;20275;-52
2021/09/25 11:30:05;;;;;;;13.17;8.70;;;19.40;99.90;;;;;;4999707;28;20586;-52
2021/09/25 11:32:36;;;;;;;13.40;8.93;;;19.40;99.90;;;;;;4998669;28;20264;-52
2021/09/25 11:35:07;;;;;;;11.93;8.20;;;19.50;99.90;;;;;;5002428;28;20347;-52
2021/09/25 11:37:34;;;;;;;12.90;8.10;;;19.50;99.90;;;;;;4993153;28;20194;-52
2021/09/25 11:40:03;;;;;;;14.80;8.50;;;19.60;99.90;;;;;;5005784;28;20271;-52
2021/09/25 11:42:31;;;;;;;11.67;8.33;;;19.70;99.80;;;;;;4999264;28;20248;-52
2021/09/25 11:45:07;;;;;;;12.40;8.97;;;19.70;92.10;;;;;;4997811;28;20205;-52
2021/09/25 11:47:42;;;;;;;12.27;8.57;;;19.70;99.90;;;;;;5013877;28;20328;-52
2021/09/25 11:50:25;;;;;;;15.17;9.13;;;19.80;74.10;;;;;;4999633;28;20256;-52
2021/09/25 11:53:01;;;;;;;15.80;9.10;;;20.00;77.20;;;;;;5000072;28;20210;-52
2021/09/25 11:55:30;;;;;;;13.27;8.70;;;20.00;47.00;;;;;;4991559;28;20226;-52
2021/09/25 11:58:00;;;;;;;12.87;8.67;;;19.90;1.00;;;;;;4999364;28;20201;-52
2021/09/25 12:00:38;;;;;;;11.67;8.20;;;19.80;90.70;;;;;;4998882;28;20292;-52
2021/09/25 12:03:08;;;;;;;12.33;8.07;;;20.00;99.90;;;;;;4995981;28;20201;-52
2021/09/25 12:05:42;;;;;;;13.47;8.20;;;20.00;1.00;;;;;;4998567;28;20255;-52
2021/09/25 12:08:18;;;;;;;13.17;7.83;;;20.00;1.00;;;;;;4994225;28;20209;-52
2021/09/25 12:10:44;;;;;;;14.20;8.53;;;20.10;1.00;;;;;;4996181;28;20717;-52
2021/09/25 12:13:17;;;;;;;12.80;8.83;;;20.20;1.00;;;;;;4998215;28;20245;-52
2021/09/25 12:16:06;;;;;;;11.73;8.13;;;20.30;1.00;;;;;;5002915;28;20249;-51
2021/09/25 12:18:38;;;;;;;11.83;8.43;;;20.40;1.00;;;;;;4997160;28;20245;-51
2021/09/25 12:21:05;;;;;;;13.70;8.60;;;20.30;1.00;;;;;;5000304;28;20196;-51
2021/09/25 12:23:35;;;;;;;12.33;8.43;;;20.30;1.00;;;;;;4998354;28;20268;-52
2021/09/25 12:26:04;;;;;;;12.67;8.20;;;20.30;1.00;;;;;;4991100;28;20285;-51
2021/09/25 12:28:33;;;;;;;13.50;8.70;;;20.40;1.00;;;;;;4998274;28;20240;-51
2021/09/25 12:31:07;;;;;;;12.60;7.63;;;20.30;1.00;;;;;;4996235;28;20284;-52
2021/09/25 12:33:36;;;;;;;12.10;8.00;;;20.50;1.00;;;;;;4999670;28;20216;-51
2021/09/25 12:36:10;;;;;;;9.60;7.60;;;20.60;1.00;;;;;;4999646;28;20227;-51
2021/09/25 12:38:41;;;;;;;13.23;7.67;;;20.70;1.00;;;;;;4996863;28;22610;-51
2021/09/25 12:41:10;;;;;;;9.97;7.70;;;20.90;1.00;;;;;;4995937;28;20485;-51
2021/09/25 12:43:46;;;;;;;8.90;6.93;;;20.80;1.00;;;;;;4996429;28;20208;-51
2021/09/25 12:46:20;;;;;;;10.60;7.43;;;20.80;1.00;;;;;;4996783;28;20233;-51
2021/09/25 12:49:20;;;;;;;9.87;6.60;;;20.80;99.90;;;;;;5000116;28;20196;-51
2021/09/25 12:52:14;;;;;;;9.27;6.37;;;20.90;1.00;;;;;;4998247;28;20254;-51